Terminal Aerodrome Forecast
Issued by NWS

Current Version | Previous Version | Text Only | Print | Product List | Glossary On
Versions: 1 2 3 4 5 6 7 8 9 10 11 12 13 14 15 16 17 18
000
FTUS45 KBOU 211741
TAFBJC
TAF
KBJC 211741Z 2118/2218 35016G28KT 3/4SM -SN BR OVC005
      TEMPO 2118/2120 1/2SM SN FZFG VV003
     FM212000 34022G34KT 1SM -SN BR SCT003 OVC007
     FM220000 34018G26KT P6SM VCSH BKN010 OVC018
      TEMPO 2200/2203 2SM -SN BKN006 OVC010
     FM220300 30015G25KT P6SM SCT020 BKN050
     FM220900 28016KT P6SM SCT050 BKN140
     FM221700 27015KT P6SM FEW140=

USA.gov is the U.S. government's official web portal to all federal, state and local government web resources and services.